Ten. Cel. Aviador César Bombonato Airport
SBUL : now visible

Airfield :











YOU CAN JOIN US ON...

 
LOGIN :

Register | Disclaimer

   EN    FR    IT 

 









Legend :    VFR   Marginal VFR   IFR   Intensive IFR   Very Intensive IFR
Visi :
Ceiling :
>= 8 km
>= 3000ft
5 to 8 km
1000 to 3000 ft
1500m to 5 km
500 to 1000 ft
800 to 1500m
200 to 500 ft
< 800m
< 200 ft
Symbols :   Thunderstorms  Fog  Heavy snow  Heavy precipitations  Wind > 20 kt






- Airport Elevation : 3094 ft
- IATA code : UDI


SBUL - Ten. Cel. Aviador César Bombonato

CURRENT METAR :
  • 020400Z 08005KT CAVOK 16/11 Q1020

TAF TAF SBUL
Valid from the 02 at 00:00 until the 02 at 12:00 UTC


012200Z 0200/0212 07003KT CAVOK TX18/0200Z TN12/0210Z
BECMG 0201/0203 13004KT
BECMG 0204/0206 06005KT
BECMG 0210/0212 33010KT RMK PHH
SBBS FIR / South America



MET'MAP, your aeronautical weather chart ! - Copyright ORBIFLY December 2007 - Disclaimer

ORBIFLY MET'MAP TEAM :

Programming & Development : Alexandra Zaïnal
Concept & original design : Baudouin d'Aumeries
Assistance for programming : Marc-Olivier Méhu
Technical & hardware support : Manuel Goepfert

Contact : metmap@orbifly.com




SOURCES & CREDITS :

   NOAA       Earth
Advisory